This demonstration page uses our WeatherBlox Daily Observations layout. Learn more.

36.17497, -115.13722

Hourly Observations for April 29, 2015

Temp ( °F °C ) Dew Point ( °F °C ) Humidity (%) Winds ( mph kmh ) Pressure ( in mb ) Visibility ( mi km ) Precip ( " mm )
12:53 am 00:53 Clear 68 20 30 -1.1 24 24 NW 5 7 29.96 1014 10 16.0934 0 0
1:53 am 01:53 Clear 68 20 31 -0.6 25 25 S 5 7 29.95 1014 10 16.0934 0 0
2:53 am 02:53 Clear 66 18.9 31 -0.6 27 27 NW 5 7 29.95 1014 10 16.0934 0 0
3:53 am 03:53 Clear 65 18.3 33 0.6 31 31 NW 6 9 29.95 1014 10 16.0934 0 0
4:53 am 04:53 Clear 64 17.8 30 -1.1 28 28 SW 3 6 29.94 1014 10 16.0934 0 0
5:53 am 05:53 Sunny 63 17.2 31 -0.6 30 30 Calm 29.96 1015 10 16.0934 0 0
6:53 am 06:53 Sunny 66 18.9 31 -0.6 27 27 N 8 13 29.97 1015 10 16.0934 0 0
7:53 am 07:53 Sunny 71 21.7 31 -0.6 23 23 N 7 11 29.98 1015 10 16.0934 0 0
8:53 am 08:53 Sunny 76 24.4 28 -2.2 17 17 Calm 29.98 1015 10 16.0934 0 0
9:53 am 09:53 Sunny 79 26.1 28 -2.2 15 15 VRB 6 9 29.98 1015 10 16.0934 0 0
10:53 am 10:53 Sunny 83 28.3 28 -2.2 13 13 SE 9 15 29.96 1015 N/A 0 0
11:53 am 11:53 Sunny 86 30 27 -2.8 12 12 undefined N/A 29.93 1014 10 16.0934 0 0
12:53 pm 12:53 Sunny 90 32.2 22 -5.6 8 8 SSW 16 26 29.9 1013 10 16.0934 0 0
1:53 pm 13:53 Sunny 91 32.8 22 -5.6 8 8 SW 17 28 29.87 1011 10 16.0934 0 0
2:53 pm 14:53 Sunny 91 32.8 23 -5 8 8 SW 20 31 29.84 1011 10 16.0934 0 0
3:53 pm 15:53 Sunny 90 32.2 21 -6.1 8 8 VRB 7 11 29.82 1010 10 16.0934 0 0
4:53 pm 16:53 Sunny 91 32.8 21 -6.1 8 8 SSW 8 13 29.8 1009 10 16.0934 0 0
5:53 pm 17:53 Sunny 90 32.2 20 -6.7 8 8 WSW 15 24 29.79 1009 10 16.0934 0 0
6:53 pm 18:53 Sunny 88 31.1 20 -6.7 8 8 WSW 12 19 29.79 1009 10 16.0934 0 0
7:53 pm 19:53 Clear 86 30 21 -6.1 9 9 SW 9 15 29.79 1009 10 16.0934 0 0
8:53 pm 20:53 Clear 84 28.9 22 -5.6 10 10 SW 10 17 29.8 1009 10 16.0934 0 0
9:53 pm 21:53 Clear 81 27.2 24 -4.4 12 12 SSW 7 11 29.8 1009 10 16.0934 0 0
10:53 pm 22:53 Clear 79 26.1 24 -4.4 13 13 WNW 6 9 29.8 1009 10 16.0934 0 0
11:53 pm 23:53 Clear 75 23.9 27 -2.8 17 17 NW 6 9 29.81 1009 10 16.0934 0 0

Powered by AerisWeather